sensor_id;sensor_type;location;lat;lon;timestamp;P1;durP1;ratioP1;P2;durP2;ratioP2
12212;SDS011;6169;44.158;22.788;2023-03-15T00:03:36;19.13;;;11.70;;
12212;SDS011;6169;44.158;22.788;2023-03-15T00:08:39;17.00;;;10.67;;
12212;SDS011;6169;44.158;22.788;2023-03-15T00:13:41;22.03;;;13.10;;
12212;SDS011;6169;44.158;22.788;2023-03-15T00:18:45;21.87;;;12.77;;
12212;SDS011;6169;44.158;22.788;2023-03-15T00:23:47;17.10;;;11.53;;
12212;SDS011;6169;44.158;22.788;2023-03-15T00:28:50;23.77;;;13.07;;
12212;SDS011;6169;44.158;22.788;2023-03-15T00:33:54;19.47;;;13.23;;
12212;SDS011;6169;44.158;22.788;2023-03-15T00:38:56;21.17;;;12.83;;
12212;SDS011;6169;44.158;22.788;2023-03-15T00:43:58;18.73;;;12.77;;
12212;SDS011;6169;44.158;22.788;2023-03-15T00:49:02;16.10;;;11.73;;
12212;SDS011;6169;44.158;22.788;2023-03-15T00:54:04;20.43;;;13.40;;
12212;SDS011;6169;44.158;22.788;2023-03-15T00:59:06;18.83;;;12.43;;
12212;SDS011;6169;44.158;22.788;2023-03-15T01:04:10;26.47;;;13.50;;
12212;SDS011;6169;44.158;22.788;2023-03-15T01:09:12;20.40;;;13.17;;
12212;SDS011;6169;44.158;22.788;2023-03-15T01:14:14;18.43;;;12.27;;
12212;SDS011;6169;44.158;22.788;2023-03-15T01:19:19;18.67;;;12.97;;
12212;SDS011;6169;44.158;22.788;2023-03-15T01:24:21;19.20;;;12.53;;
12212;SDS011;6169;44.158;22.788;2023-03-15T01:29:24;20.20;;;13.07;;
12212;SDS011;6169;44.158;22.788;2023-03-15T01:34:28;19.23;;;12.27;;
12212;SDS011;6169;44.158;22.788;2023-03-15T01:39:30;22.07;;;12.90;;
12212;SDS011;6169;44.158;22.788;2023-03-15T01:44:49;17.37;;;12.33;;
12212;SDS011;6169;44.158;22.788;2023-03-15T01:49:56;20.60;;;12.25;;
12212;SDS011;6169;44.158;22.788;2023-03-15T01:55:04;16.33;;;11.30;;
12212;SDS011;6169;44.158;22.788;2023-03-15T02:00:10;18.93;;;12.30;;
12212;SDS011;6169;44.158;22.788;2023-03-15T02:05:17;23.07;;;12.40;;
12212;SDS011;6169;44.158;22.788;2023-03-15T02:10:24;20.60;;;13.40;;
12212;SDS011;6169;44.158;22.788;2023-03-15T02:15:29;18.87;;;12.10;;
12212;SDS011;6169;44.158;22.788;2023-03-15T02:20:34;18.40;;;11.83;;
12212;SDS011;6169;44.158;22.788;2023-03-15T02:25:42;20.23;;;12.17;;
12212;SDS011;6169;44.158;22.788;2023-03-15T02:30:53;22.87;;;13.77;;
12212;SDS011;6169;44.158;22.788;2023-03-15T02:36:07;17.73;;;11.70;;
12212;SDS011;6169;44.158;22.788;2023-03-15T02:41:16;20.27;;;11.23;;
12212;SDS011;6169;44.158;22.788;2023-03-15T02:46:23;17.77;;;10.87;;
12212;SDS011;6169;44.158;22.788;2023-03-15T02:51:26;17.30;;;11.70;;
12212;SDS011;6169;44.158;22.788;2023-03-15T02:56:30;18.00;;;11.43;;
12212;SDS011;6169;44.158;22.788;2023-03-15T03:01:34;25.07;;;12.57;;
12212;SDS011;6169;44.158;22.788;2023-03-15T03:06:36;18.67;;;10.60;;
12212;SDS011;6169;44.158;22.788;2023-03-15T03:11:38;18.57;;;12.73;;
12212;SDS011;6169;44.158;22.788;2023-03-15T03:16:42;23.73;;;14.60;;
12212;SDS011;6169;44.158;22.788;2023-03-15T03:21:44;16.07;;;11.03;;
12212;SDS011;6169;44.158;22.788;2023-03-15T03:26:46;14.17;;;9.47;;
12212;SDS011;6169;44.158;22.788;2023-03-15T03:31:50;16.70;;;10.67;;
12212;SDS011;6169;44.158;22.788;2023-03-15T03:36:52;14.70;;;9.83;;
12212;SDS011;6169;44.158;22.788;2023-03-15T03:41:54;13.77;;;8.93;;
12212;SDS011;6169;44.158;22.788;2023-03-15T03:46:58;17.97;;;10.27;;
12212;SDS011;6169;44.158;22.788;2023-03-15T03:52:00;16.63;;;9.80;;
12212;SDS011;6169;44.158;22.788;2023-03-15T03:57:03;18.47;;;11.83;;
12212;SDS011;6169;44.158;22.788;2023-03-15T04:02:07;16.17;;;9.87;;
12212;SDS011;6169;44.158;22.788;2023-03-15T04:07:09;13.30;;;9.30;;
12212;SDS011;6169;44.158;22.788;2023-03-15T04:12:12;16.90;;;9.37;;
12212;SDS011;6169;44.158;22.788;2023-03-15T04:17:15;13.90;;;8.37;;
12212;SDS011;6169;44.158;22.788;2023-03-15T04:22:17;15.20;;;9.83;;
12212;SDS011;6169;44.158;22.788;2023-03-15T04:27:19;16.20;;;9.30;;
12212;SDS011;6169;44.158;22.788;2023-03-15T04:32:23;16.13;;;9.23;;
12212;SDS011;6169;44.158;22.788;2023-03-15T04:37:25;15.83;;;8.90;;
12212;SDS011;6169;44.158;22.788;2023-03-15T04:42:27;18.90;;;11.17;;
12212;SDS011;6169;44.158;22.788;2023-03-15T04:47:31;15.50;;;10.10;;
12212;SDS011;6169;44.158;22.788;2023-03-15T04:52:33;17.17;;;11.33;;
12212;SDS011;6169;44.158;22.788;2023-03-15T04:57:36;19.70;;;10.83;;
12212;SDS011;6169;44.158;22.788;2023-03-15T05:02:39;16.80;;;10.17;;
12212;SDS011;6169;44.158;22.788;2023-03-15T05:07:42;13.83;;;9.10;;
12212;SDS011;6169;44.158;22.788;2023-03-15T05:12:44;19.83;;;12.33;;
12212;SDS011;6169;44.158;22.788;2023-03-15T05:17:48;43.70;;;23.63;;
12212;SDS011;6169;44.158;22.788;2023-03-15T05:22:54;43.77;;;23.60;;
12212;SDS011;6169;44.158;22.788;2023-03-15T05:27:56;32.43;;;19.63;;
12212;SDS011;6169;44.158;22.788;2023-03-15T05:33:00;57.93;;;29.07;;
12212;SDS011;6169;44.158;22.788;2023-03-15T05:38:04;44.70;;;24.70;;
12212;SDS011;6169;44.158;22.788;2023-03-15T05:43:06;41.80;;;25.60;;
12212;SDS011;6169;44.158;22.788;2023-03-15T05:48:10;24.07;;;14.23;;
12212;SDS011;6169;44.158;22.788;2023-03-15T05:53:12;18.67;;;12.10;;
12212;SDS011;6169;44.158;22.788;2023-03-15T05:58:14;15.47;;;11.10;;
12212;SDS011;6169;44.158;22.788;2023-03-15T06:03:18;23.73;;;15.40;;
12212;SDS011;6169;44.158;22.788;2023-03-15T06:08:20;26.53;;;17.17;;
12212;SDS011;6169;44.158;22.788;2023-03-15T06:13:22;28.27;;;17.30;;
12212;SDS011;6169;44.158;22.788;2023-03-15T06:18:26;29.97;;;16.90;;
12212;SDS011;6169;44.158;22.788;2023-03-15T06:23:28;25.20;;;16.03;;
12212;SDS011;6169;44.158;22.788;2023-03-15T06:28:30;22.00;;;14.30;;
12212;SDS011;6169;44.158;22.788;2023-03-15T06:33:34;24.17;;;15.00;;
12212;SDS011;6169;44.158;22.788;2023-03-15T06:38:36;19.20;;;11.90;;
12212;SDS011;6169;44.158;22.788;2023-03-15T06:43:38;20.60;;;13.13;;
12212;SDS011;6169;44.158;22.788;2023-03-15T06:48:42;18.60;;;11.70;;
12212;SDS011;6169;44.158;22.788;2023-03-15T06:53:44;15.07;;;10.53;;
12212;SDS011;6169;44.158;22.788;2023-03-15T06:58:46;19.70;;;10.90;;
12212;SDS011;6169;44.158;22.788;2023-03-15T07:03:50;22.07;;;13.07;;
12212;SDS011;6169;44.158;22.788;2023-03-15T07:08:52;22.17;;;14.40;;
12212;SDS011;6169;44.158;22.788;2023-03-15T07:13:54;18.57;;;11.27;;
12212;SDS011;6169;44.158;22.788;2023-03-15T07:18:59;10.57;;;7.67;;
12212;SDS011;6169;44.158;22.788;2023-03-15T07:24:02;16.20;;;9.75;;
12212;SDS011;6169;44.158;22.788;2023-03-15T07:29:04;13.30;;;8.40;;
12212;SDS011;6169;44.158;22.788;2023-03-15T07:34:08;11.63;;;7.57;;
12212;SDS011;6169;44.158;22.788;2023-03-15T07:39:10;22.20;;;11.70;;
12212;SDS011;6169;44.158;22.788;2023-03-15T07:44:12;23.02;;;10.18;;
12212;SDS011;6169;44.158;22.788;2023-03-15T07:49:16;26.73;;;13.20;;
12212;SDS011;6169;44.158;22.788;2023-03-15T07:54:18;11.90;;;7.43;;
12212;SDS011;6169;44.158;22.788;2023-03-15T07:59:20;9.73;;;6.75;;
12212;SDS011;6169;44.158;22.788;2023-03-15T08:04:24;11.50;;;6.95;;
12212;SDS011;6169;44.158;22.788;2023-03-15T08:09:27;9.40;;;7.13;;
12212;SDS011;6169;44.158;22.788;2023-03-15T08:14:29;11.60;;;6.25;;
12212;SDS011;6169;44.158;22.788;2023-03-15T08:19:33;14.05;;;6.50;;
12212;SDS011;6169;44.158;22.788;2023-03-15T08:24:35;10.77;;;7.00;;
12212;SDS011;6169;44.158;22.788;2023-03-15T08:29:37;13.05;;;8.60;;
12212;SDS011;6169;44.158;22.788;2023-03-15T08:34:41;14.45;;;7.82;;
12212;SDS011;6169;44.158;22.788;2023-03-15T08:39:44;21.92;;;10.63;;
12212;SDS011;6169;44.158;22.788;2023-03-15T08:44:46;10.88;;;5.35;;
12212;SDS011;6169;44.158;22.788;2023-03-15T08:49:50;7.20;;;5.63;;
12212;SDS011;6169;44.158;22.788;2023-03-15T08:54:53;11.10;;;5.72;;
12212;SDS011;6169;44.158;22.788;2023-03-15T08:59:55;8.77;;;5.18;;
12212;SDS011;6169;44.158;22.788;2023-03-15T09:04:58;12.25;;;6.32;;
12212;SDS011;6169;44.158;22.788;2023-03-15T09:10:00;15.25;;;8.68;;
12212;SDS011;6169;44.158;22.788;2023-03-15T09:15:04;16.00;;;7.68;;
12212;SDS011;6169;44.158;22.788;2023-03-15T09:20:10;14.57;;;8.75;;
12212;SDS011;6169;44.158;22.788;2023-03-15T09:25:15;15.77;;;10.07;;
12212;SDS011;6169;44.158;22.788;2023-03-15T09:30:17;10.27;;;6.70;;
12212;SDS011;6169;44.158;22.788;2023-03-15T09:35:21;12.38;;;6.47;;
12212;SDS011;6169;44.158;22.788;2023-03-15T09:40:24;10.48;;;6.18;;
12212;SDS011;6169;44.158;22.788;2023-03-15T09:45:30;5.93;;;4.25;;
12212;SDS011;6169;44.158;22.788;2023-03-15T09:50:44;7.50;;;4.57;;
12212;SDS011;6169;44.158;22.788;2023-03-15T09:55:50;7.85;;;4.70;;
12212;SDS011;6169;44.158;22.788;2023-03-15T10:00:53;7.93;;;5.43;;
12212;SDS011;6169;44.158;22.788;2023-03-15T10:06:01;10.15;;;5.38;;
12212;SDS011;6169;44.158;22.788;2023-03-15T10:16:19;10.27;;;6.30;;
12212;SDS011;6169;44.158;22.788;2023-03-15T10:21:34;13.85;;;7.47;;
12212;SDS011;6169;44.158;22.788;2023-03-15T10:26:42;8.48;;;5.72;;
12212;SDS011;6169;44.158;22.788;2023-03-15T10:31:44;7.47;;;4.47;;
12212;SDS011;6169;44.158;22.788;2023-03-15T10:36:49;6.68;;;4.47;;
12212;SDS011;6169;44.158;22.788;2023-03-15T10:41:54;10.25;;;5.97;;
12212;SDS011;6169;44.158;22.788;2023-03-15T10:47:00;7.70;;;4.95;;
12212;SDS011;6169;44.158;22.788;2023-03-15T10:52:22;9.87;;;6.03;;
12212;SDS011;6169;44.158;22.788;2023-03-15T10:57:27;10.10;;;6.72;;
12212;SDS011;6169;44.158;22.788;2023-03-15T11:02:35;12.18;;;6.40;;
12212;SDS011;6169;44.158;22.788;2023-03-15T11:07:39;12.82;;;7.05;;
12212;SDS011;6169;44.158;22.788;2023-03-15T11:13:08;12.65;;;5.93;;
12212;SDS011;6169;44.158;22.788;2023-03-15T11:18:15;15.88;;;7.60;;
12212;SDS011;6169;44.158;22.788;2023-03-15T11:23:21;8.75;;;5.38;;
12212;SDS011;6169;44.158;22.788;2023-03-15T11:28:27;11.07;;;4.85;;
12212;SDS011;6169;44.158;22.788;2023-03-15T11:33:37;17.20;;;7.70;;
12212;SDS011;6169;44.158;22.788;2023-03-15T11:38:46;11.15;;;6.85;;
12212;SDS011;6169;44.158;22.788;2023-03-15T11:43:51;7.13;;;4.95;;
12212;SDS011;6169;44.158;22.788;2023-03-15T11:49:02;6.57;;;5.03;;
12212;SDS011;6169;44.158;22.788;2023-03-15T11:54:13;8.13;;;4.05;;
12212;SDS011;6169;44.158;22.788;2023-03-15T11:59:17;4.65;;;3.90;;
12212;SDS011;6169;44.158;22.788;2023-03-15T12:09:52;8.40;;;4.55;;
12212;SDS011;6169;44.158;22.788;2023-03-15T12:15:00;6.28;;;3.78;;
12212;SDS011;6169;44.158;22.788;2023-03-15T12:20:06;7.65;;;3.97;;
12212;SDS011;6169;44.158;22.788;2023-03-15T12:30:22;8.77;;;4.22;;
12212;SDS011;6169;44.158;22.788;2023-03-15T12:35:28;6.68;;;3.95;;
12212;SDS011;6169;44.158;22.788;2023-03-15T12:40:39;7.03;;;3.97;;
12212;SDS011;6169;44.158;22.788;2023-03-15T12:45:49;6.55;;;3.70;;
12212;SDS011;6169;44.158;22.788;2023-03-15T12:50:55;7.07;;;5.15;;
12212;SDS011;6169;44.158;22.788;2023-03-15T12:56:11;9.27;;;4.30;;
12212;SDS011;6169;44.158;22.788;2023-03-15T13:01:31;10.50;;;5.53;;
12212;SDS011;6169;44.158;22.788;2023-03-15T13:06:39;6.90;;;4.00;;
12212;SDS011;6169;44.158;22.788;2023-03-15T13:11:52;16.10;;;10.27;;
12212;SDS011;6169;44.158;22.788;2023-03-15T13:17:04;38.08;;;22.40;;
12212;SDS011;6169;44.158;22.788;2023-03-15T13:22:17;11.77;;;6.60;;
12212;SDS011;6169;44.158;22.788;2023-03-15T13:27:32;11.10;;;5.00;;
12212;SDS011;6169;44.158;22.788;2023-03-15T13:32:44;6.88;;;4.10;;
12212;SDS011;6169;44.158;22.788;2023-03-15T13:37:46;7.30;;;4.05;;
12212;SDS011;6169;44.158;22.788;2023-03-15T13:42:50;12.38;;;7.63;;
12212;SDS011;6169;44.158;22.788;2023-03-15T13:47:52;4.80;;;3.40;;
12212;SDS011;6169;44.158;22.788;2023-03-15T13:52:54;7.25;;;3.97;;
12212;SDS011;6169;44.158;22.788;2023-03-15T13:57:59;6.13;;;3.55;;
12212;SDS011;6169;44.158;22.788;2023-03-15T14:03:07;4.88;;;3.63;;
12212;SDS011;6169;44.158;22.788;2023-03-15T14:08:18;8.43;;;4.85;;
12212;SDS011;6169;44.158;22.788;2023-03-15T14:13:25;7.78;;;3.97;;
12212;SDS011;6169;44.158;22.788;2023-03-15T14:18:30;8.35;;;4.05;;
12212;SDS011;6169;44.158;22.788;2023-03-15T14:23:35;5.53;;;4.10;;
12212;SDS011;6169;44.158;22.788;2023-03-15T14:28:43;7.15;;;5.43;;
12212;SDS011;6169;44.158;22.788;2023-03-15T14:33:52;9.85;;;4.57;;
12212;SDS011;6169;44.158;22.788;2023-03-15T14:38:59;7.60;;;4.40;;
12212;SDS011;6169;44.158;22.788;2023-03-15T14:44:03;9.60;;;5.32;;
12212;SDS011;6169;44.158;22.788;2023-03-15T14:49:05;9.40;;;4.68;;
12212;SDS011;6169;44.158;22.788;2023-03-15T14:54:10;8.70;;;5.07;;
12212;SDS011;6169;44.158;22.788;2023-03-15T14:59:15;11.63;;;5.38;;
12212;SDS011;6169;44.158;22.788;2023-03-15T15:04:17;8.88;;;5.75;;
12212;SDS011;6169;44.158;22.788;2023-03-15T15:09:21;8.13;;;5.30;;
12212;SDS011;6169;44.158;22.788;2023-03-15T15:14:27;8.30;;;5.90;;
12212;SDS011;6169;44.158;22.788;2023-03-15T15:19:29;9.93;;;7.20;;
12212;SDS011;6169;44.158;22.788;2023-03-15T15:24:31;8.73;;;5.10;;
12212;SDS011;6169;44.158;22.788;2023-03-15T15:29:35;7.72;;;5.60;;
12212;SDS011;6169;44.158;22.788;2023-03-15T15:34:37;7.70;;;5.20;;
12212;SDS011;6169;44.158;22.788;2023-03-15T15:39:40;10.68;;;5.13;;
12212;SDS011;6169;44.158;22.788;2023-03-15T15:44:43;8.35;;;5.05;;
12212;SDS011;6169;44.158;22.788;2023-03-15T15:49:46;9.23;;;4.35;;
12212;SDS011;6169;44.158;22.788;2023-03-15T15:54:48;9.00;;;4.55;;
12212;SDS011;6169;44.158;22.788;2023-03-15T15:59:52;8.68;;;5.25;;
12212;SDS011;6169;44.158;22.788;2023-03-15T16:04:54;18.52;;;11.40;;
12212;SDS011;6169;44.158;22.788;2023-03-15T16:09:56;17.55;;;10.75;;
12212;SDS011;6169;44.158;22.788;2023-03-15T16:15:01;13.93;;;7.50;;
12212;SDS011;6169;44.158;22.788;2023-03-15T16:20:05;15.02;;;7.88;;
12212;SDS011;6169;44.158;22.788;2023-03-15T16:25:09;11.65;;;8.18;;
12212;SDS011;6169;44.158;22.788;2023-03-15T16:30:19;31.98;;;18.17;;
12212;SDS011;6169;44.158;22.788;2023-03-15T16:35:23;38.42;;;22.65;;
12212;SDS011;6169;44.158;22.788;2023-03-15T16:40:31;29.88;;;15.88;;
12212;SDS011;6169;44.158;22.788;2023-03-15T16:45:35;15.57;;;8.40;;
12212;SDS011;6169;44.158;22.788;2023-03-15T16:50:38;18.08;;;8.10;;
12212;SDS011;6169;44.158;22.788;2023-03-15T16:55:41;17.75;;;9.40;;
12212;SDS011;6169;44.158;22.788;2023-03-15T17:00:45;23.05;;;10.80;;
12212;SDS011;6169;44.158;22.788;2023-03-15T17:05:47;20.13;;;9.45;;
12212;SDS011;6169;44.158;22.788;2023-03-15T17:10:50;14.60;;;7.68;;
12212;SDS011;6169;44.158;22.788;2023-03-15T17:15:54;10.07;;;4.15;;
12212;SDS011;6169;44.158;22.788;2023-03-15T17:20:56;8.45;;;3.90;;
12212;SDS011;6169;44.158;22.788;2023-03-15T17:25:58;35.45;;;21.70;;
12212;SDS011;6169;44.158;22.788;2023-03-15T17:31:03;35.50;;;18.52;;
12212;SDS011;6169;44.158;22.788;2023-03-15T17:36:08;32.10;;;16.58;;
12212;SDS011;6169;44.158;22.788;2023-03-15T17:41:15;62.15;;;46.42;;
12212;SDS011;6169;44.158;22.788;2023-03-15T17:46:22;35.80;;;20.98;;
12212;SDS011;6169;44.158;22.788;2023-03-15T17:51:29;51.72;;;32.92;;
12212;SDS011;6169;44.158;22.788;2023-03-15T17:56:33;52.38;;;32.53;;
12212;SDS011;6169;44.158;22.788;2023-03-15T18:01:37;20.25;;;12.40;;
12212;SDS011;6169;44.158;22.788;2023-03-15T18:06:42;20.45;;;14.05;;
12212;SDS011;6169;44.158;22.788;2023-03-15T18:11:44;29.13;;;17.67;;
12212;SDS011;6169;44.158;22.788;2023-03-15T18:16:49;26.50;;;17.23;;
12212;SDS011;6169;44.158;22.788;2023-03-15T18:21:51;24.85;;;14.25;;
12212;SDS011;6169;44.158;22.788;2023-03-15T18:26:53;23.63;;;15.43;;
12212;SDS011;6169;44.158;22.788;2023-03-15T18:31:56;45.50;;;30.60;;
12212;SDS011;6169;44.158;22.788;2023-03-15T18:36:59;21.88;;;15.10;;
12212;SDS011;6169;44.158;22.788;2023-03-15T18:42:01;20.20;;;15.23;;
12212;SDS011;6169;44.158;22.788;2023-03-15T18:47:05;22.20;;;14.20;;
12212;SDS011;6169;44.158;22.788;2023-03-15T18:52:08;21.90;;;14.60;;
12212;SDS011;6169;44.158;22.788;2023-03-15T18:57:15;24.63;;;16.42;;
12212;SDS011;6169;44.158;22.788;2023-03-15T19:02:20;25.77;;;16.48;;
12212;SDS011;6169;44.158;22.788;2023-03-15T19:07:22;30.85;;;18.55;;
12212;SDS011;6169;44.158;22.788;2023-03-15T19:12:26;45.55;;;24.40;;
12212;SDS011;6169;44.158;22.788;2023-03-15T19:17:30;20.63;;;13.13;;
12212;SDS011;6169;44.158;22.788;2023-03-15T19:22:32;18.40;;;12.70;;
12212;SDS011;6169;44.158;22.788;2023-03-15T19:27:34;31.73;;;18.48;;
12212;SDS011;6169;44.158;22.788;2023-03-15T19:32:38;22.40;;;14.32;;
12212;SDS011;6169;44.158;22.788;2023-03-15T19:37:42;24.67;;;15.45;;
12212;SDS011;6169;44.158;22.788;2023-03-15T19:42:44;10.25;;;6.90;;
12212;SDS011;6169;44.158;22.788;2023-03-15T19:47:50;8.38;;;5.45;;
12212;SDS011;6169;44.158;22.788;2023-03-15T19:52:52;5.45;;;4.10;;
12212;SDS011;6169;44.158;22.788;2023-03-15T19:57:54;5.10;;;3.65;;
12212;SDS011;6169;44.158;22.788;2023-03-15T20:02:58;22.60;;;13.07;;
12212;SDS011;6169;44.158;22.788;2023-03-15T20:08:00;18.90;;;13.20;;
12212;SDS011;6169;44.158;22.788;2023-03-15T20:13:03;5.93;;;4.82;;
12212;SDS011;6169;44.158;22.788;2023-03-15T20:18:06;5.68;;;4.38;;
12212;SDS011;6169;44.158;22.788;2023-03-15T20:23:12;6.80;;;5.50;;
12212;SDS011;6169;44.158;22.788;2023-03-15T20:28:14;13.25;;;9.10;;
12212;SDS011;6169;44.158;22.788;2023-03-15T20:33:19;7.47;;;4.78;;
12212;SDS011;6169;44.158;22.788;2023-03-15T20:38:22;3.85;;;2.88;;
12212;SDS011;6169;44.158;22.788;2023-03-15T20:43:24;6.07;;;4.03;;
12212;SDS011;6169;44.158;22.788;2023-03-15T20:48:29;2.75;;;1.92;;
12212;SDS011;6169;44.158;22.788;2023-03-15T20:53:34;34.50;;;18.48;;
12212;SDS011;6169;44.158;22.788;2023-03-15T20:58:37;39.47;;;25.08;;
12212;SDS011;6169;44.158;22.788;2023-03-15T21:03:42;13.32;;;8.60;;
12212;SDS011;6169;44.158;22.788;2023-03-15T21:08:45;20.85;;;13.98;;
12212;SDS011;6169;44.158;22.788;2023-03-15T21:13:48;24.63;;;16.95;;
12212;SDS011;6169;44.158;22.788;2023-03-15T21:18:52;4.80;;;4.40;;
12212;SDS011;6169;44.158;22.788;2023-03-15T21:23:54;2.88;;;1.40;;
12212;SDS011;6169;44.158;22.788;2023-03-15T21:28:57;3.10;;;2.45;;
12212;SDS011;6169;44.158;22.788;2023-03-15T21:34:01;3.15;;;2.85;;
12212;SDS011;6169;44.158;22.788;2023-03-15T21:39:04;1.98;;;1.23;;
12212;SDS011;6169;44.158;22.788;2023-03-15T21:44:06;1.83;;;0.97;;
12212;SDS011;6169;44.158;22.788;2023-03-15T21:49:10;1.30;;;0.70;;
12212;SDS011;6169;44.158;22.788;2023-03-15T21:54:13;1.70;;;1.60;;
12212;SDS011;6169;44.158;22.788;2023-03-15T21:59:15;0.65;;;0.63;;
12212;SDS011;6169;44.158;22.788;2023-03-15T22:04:18;1.53;;;0.67;;
12212;SDS011;6169;44.158;22.788;2023-03-15T22:09:21;4.05;;;1.40;;
12212;SDS011;6169;44.158;22.788;2023-03-15T22:14:23;0.70;;;0.60;;
12212;SDS011;6169;44.158;22.788;2023-03-15T22:19:27;0.73;;;0.55;;
12212;SDS011;6169;44.158;22.788;2023-03-15T22:24:29;0.50;;;0.30;;
12212;SDS011;6169;44.158;22.788;2023-03-15T22:29:33;0.73;;;0.37;;
12212;SDS011;6169;44.158;22.788;2023-03-15T22:34:36;0.25;;;0.25;;
12212;SDS011;6169;44.158;22.788;2023-03-15T22:39:39;0.90;;;0.60;;
12212;SDS011;6169;44.158;22.788;2023-03-15T22:44:42;0.40;;;0.23;;
12212;SDS011;6169;44.158;22.788;2023-03-15T22:49:46;0.70;;;0.40;;
12212;SDS011;6169;44.158;22.788;2023-03-15T22:54:49;0.57;;;0.40;;
12212;SDS011;6169;44.158;22.788;2023-03-15T22:59:51;0.73;;;0.50;;
12212;SDS011;6169;44.158;22.788;2023-03-15T23:04:55;1.30;;;0.77;;
12212;SDS011;6169;44.158;22.788;2023-03-15T23:09:57;0.53;;;0.40;;
12212;SDS011;6169;44.158;22.788;2023-03-15T23:14:59;0.50;;;0.30;;
12212;SDS011;6169;44.158;22.788;2023-03-15T23:20:03;0.20;;;0.10;;
12212;SDS011;6169;44.158;22.788;2023-03-15T23:25:06;1.97;;;0.47;;
12212;SDS011;6169;44.158;22.788;2023-03-15T23:30:10;0.93;;;0.40;;
12212;SDS011;6169;44.158;22.788;2023-03-15T23:35:14;0.40;;;0.27;;
12212;SDS011;6169;44.158;22.788;2023-03-15T23:40:17;0.10;;;0.10;;
12212;SDS011;6169;44.158;22.788;2023-03-15T23:45:19;0.63;;;0.30;;
12212;SDS011;6169;44.158;22.788;2023-03-15T23:50:23;1.80;;;0.53;;
12212;SDS011;6169;44.158;22.788;2023-03-15T23:55:25;0.23;;;0.17;;
